St-Esprit Aerodrome

CES2 · Quebec, Canadá

METAR pasados CES2 · St-Esprit Aerodrome

A continuación puedes ver los METAR de los últimos días. Selecciona un año para ver los METAR más antiguos, desde el año 2007 en adelante.

16 de julio de 2024

Hora Código Tiempo Temp. Visibilidad Cielo nuboso Viento METAR/SPECI
12:00
V
24 °C 25 mi 15.000 ft 280° 280° 3 kt METAR CYMX 161600Z 28003KT 240V320 25SM FEW012 BKN150 BKN250 24/22 A2971 RMK SC1AC4CI2 SLP062 DENSITY ALT 1600FT
11:00
V
24 °C 15 mi 15.000 ft 270° 270° 6 kt METAR CYMX 161500Z 27006KT 210V300 15SM SCT013 OVC150 24/21 A2971 RMK SC4AC4 SLP062 DENSITY ALT 1600FT
10:00
M
22 °C 15 mi 1.300 ft 260° 260° 3 kt METAR CYMX 161400Z 26003KT 190V310 15SM FEW008 OVC013 22/21 A2970 RMK SC2SC6 SLP058 DENSITY ALT 1500FT
09:50
M
23 °C 15 mi 1.200 ft 230° 230° 4 kt METAR CYMX 161350Z 23004KT 200V280 15SM SCT008 OVC012 23/21 A2970 RMK SC3SC5 SLP058 DENSITY ALT 1500FT
09:00
I
21 °C 8 mi 600 ft 220° 220° 5 kt METAR CYMX 161300Z 22005KT 180V300 8SM OVC006 21/20 A2971 RMK SC8 CIG RAG SLP062 DENSITY ALT 1300FT
08:00
I
21 °C 8 mi 500 ft 220° 220° 4 kt METAR CYMX 161200Z 22004KT 8SM OVC005 21/20 A2971 RMK SC8 CIG VRB 004-006 SLP063 DENSITY ALT 1300FT
07:00
I
20 °C 8 mi 500 ft 250° 250° 4 kt METAR CYMX 161100Z 25004KT 210V300 8SM VCSH OVC005 20/20 A2972 RMK SC8 CIG VRB 004-006 SLP064 DENSITY ALT 1200FT
06:35
I
20 °C 8 mi 500 ft 240° 240° 3 kt METAR CYMX 161035Z 24003KT 180V300 8SM OVC005 20/20 A2971 RMK ST8 CIG VRB 004-006 SLP062 DENSITY ALT 1200FT
06:00
M
20 °C 8 mi 1.000 ft 260° 260° 3 kt METAR CYMX 161000Z 26003KT 200V290 8SM BKN010 OVC030 20/20 A2970 RMK SF6SC2 CIG VRB 007-013 SLP058 DENSITY ALT 1200FT
05:00
M
20 °C 8 mi 1.000 ft 220° 220° 4 kt METAR CYMX 160900Z 22004KT 8SM FEW002 BKN010 OVC030 20/19 A2970 RMK SF2SF5SC1 CIG VRB 007-013 SLP058 DENSITY ALT 1200FT
04:34
M
19 °C 5 mi 1.100 ft 230° 230° 3 kt METAR CYMX 160834Z 23003KT 180V250 5SM BR SCT002 BKN011 19/19 A2970 RMK SF3SC4 SLP060 DENSITY ALT 1100FT
04:21
L
19 °C 5 mi 200 ft 220° 220° 4 kt METAR CYMX 160821Z 22004KT 180V250 5SM BR OVC002 19/19 A2970 RMK SF8 SLP059 DENSITY ALT 1100FT
04:00
L
20 °C 2 mi 200 ft 220° 220° 4 kt METAR CYMX 160800Z 22004KT 170V260 2SM BR OVC002 20/19 A2970 RMK SF8 SLP058 DENSITY ALT 1200FT
03:49
I
19 °C 10 mi 500 ft 220° 220° 3 kt METAR CYMX 160749Z 22003KT 180V250 10SM BKN005 BKN015 19/19 A2970 RMK SF5SC2 SLP057 DENSITY ALT 1200FT
03:24
I
19 °C 10 mi 700 ft Var Var 2 kt METAR CYMX 160724Z VRB02KT 10SM BKN007 BKN015 19/19 A2969 RMK SF5SC2 SLP054 DENSITY ALT 1200FT
03:00
M
19 °C 10 mi 1.500 ft Var Var 2 kt METAR CYMX 160700Z VRB02KT 10SM BKN015 BKN100 19/19 A2967 RMK SC5AC2 SLP050 DENSITY ALT 1200FT
02:35
M
19 °C 10 mi 1.500 ft 360° 360° 0 kt METAR CYMX 160635Z 00000KT 10SM FEW004 BKN015 BKN100 BKN250 19/19 A2968 RMK SF1SC5AC1CI1 SF TR SLP053 DENSITY ALT 1200FT
02:00
L
19 °C 10 mi 400 ft 210° 210° 2 kt METAR CYMX 160600Z 21002KT 10SM BKN004 BKN100 19/19 A2969 RMK SF5AC2 SLP054 DENSITY ALT 1200FT
01:00
V
20 °C 25 mi 20.000 ft 290° 290° 4 kt METAR CYMX 160500Z 29004KT 25SM SCT099 BKN200 20/19 A2970 RMK AC3CI4 SLP057 DENSITY ALT 1200FT
00:00
V
20 °C 25 mi 19.000 ft Var Var 2 kt METAR CYMX 160400Z VRB02KT 25SM FEW100 BKN190 20/20 A2970 RMK AC2CI5 SLP058 DENSITY ALT 1200FT

15 de julio de 2024

Hora Código Tiempo Temp. Visibilidad Cielo nuboso Viento METAR/SPECI
23:00
V
20 °C 25 mi 12.000 ft 170° 170° 4 kt METAR CYMX 160300Z 17004KT 25SM BKN120 20/20 A2970 RMK AC6 SLP058 DENSITY ALT 1200FT
22:00
V
20 °C 20 mi 14.000 ft 060° 060° 3 kt METAR CYMX 160200Z 06003KT 360V080 20SM FEW040CB BKN140 OVC250 20/19 A2970 RMK CB2AC4CI2 FREQ DIST LGTCC E-SE SLP057 DENSITY ALT 1300FT
21:52
V
20 °C 15 mi 14.000 ft Var Var 2 kt METAR CYMX 160152Z VRB02KT 15SM FEW046CB OVC140 20/19 A2970 RMK CB2AC6 FREQ DIST LGTCC E-SE PRESFR SLP059 DENSITY ALT 1200FT
21:13
V
20 °C 10 mi 6.800 ft 300° 300° 4 kt METAR CYMX 160113Z 30004KT 240V350 10SM -SHRA FEW017CB OVC068 20/19 A2974 RMK CB2AC6 SLP073 DENSITY ALT 1200FT
21:00
V
20 °C 6 mi 6.700 ft 320° 320° 6 - 19 kt METAR CYMX 160100Z 32006G19KT 280V340 6SM TSRA SCT015CB OVC067 20/18 A2973 RMK CB3AC5 OCNL LGTCC E SLP071 DENSITY ALT 1200FT
20:26
M
24 °C 25 mi 1.600 ft 220° 220° 4 kt METAR CYMX 160026Z 22004KT 25SM TSRA BKN016CB OVC140 24/23 A2970 RMK CB5AC3 OCNL LGTCC E SLP059 DENSITY ALT 1700FT
20:00
V
24 °C 25 mi 15.000 ft 210° 210° 2 kt METAR CYMX 160000Z 21002KT 25SM TS SCT030CB BKN150 OVC250 24/23 A2971 RMK CB3AC4CI1 FREQ LGTCG E SLP061 DENSITY ALT 1700FT
19:46
V
25 °C 25 mi 15.000 ft 360° 360° 0 kt METAR CYMX 152346Z 00000KT 25SM TS SCT030CB BKN150 OVC250 25/23 A2970 RMK CB3AC3CI2 OCNL LGTCC N QUAD SLP060 DENSITY ALT 1800FT
19:00
V
27 °C 25 mi 6.600 ft 360° 360° 0 kt METAR CYMX 152300Z 00000KT 25SM FEW040 BKN066 BKN250 27/24 A2968 RMK SC1AC5CI2 SC TR SLP053 DENSITY ALT 2000FT
18:00
V
29 °C 20 mi 24.000 ft 240° 240° 2 kt METAR CYMX 152200Z 24002KT 20SM FEW040 SCT180 BKN240 29/22 A2969 RMK CU2AC2CI3 SLP056 DENSITY ALT 2200FT
17:00
V
30 °C 20 mi 24.000 ft 250° 250° 3 kt METAR CYMX 152100Z 25003KT 180V320 20SM SCT040 BKN240 30/22 A2971 RMK CU4CI3 SLP062 DENSITY ALT 2300FT
16:00
V
30 °C 20 mi 24.000 ft 250° 250° 6 kt METAR CYMX 152000Z 25006KT 190V310 20SM SCT036 BKN240 30/22 A2973 RMK CU4CI3 SLP068 DENSITY ALT 2300FT
15:00
V
28 °C 20 mi 24.000 ft 250° 250° 6 kt METAR CYMX 151900Z 25006KT 200V300 20SM SCT036 BKN240 28/22 A2975 RMK CU4CI3 SLP076 DENSITY ALT 2100FT
14:00
V
29 °C 25 mi 24.000 ft 240° 240° 5 kt METAR CYMX 151800Z 24005KT 190V300 25SM SCT032 BKN240 29/22 A2976 RMK CU4CI3 SLP080 DENSITY ALT 2100FT
13:00
M
28 °C 25 mi 2.800 ft 220° 220° 7 - 15 kt METAR CYMX 151700Z 22007G15KT 180V310 25SM BKN028 BKN240 28/22 A2978 RMK CU6CI1 SLP085 DENSITY ALT 2000FT
12:00
M
27 °C 25 mi 2.600 ft 230° 230° 5 kt METAR CYMX 151600Z 23005KT 190V290 25SM BKN026 BKN240 27/22 A2978 RMK CU6CI1 SLP088 DENSITY ALT 1900FT
11:00
M
26 °C 25 mi 2.200 ft 230° 230° 7 kt METAR CYMX 151500Z 23007KT 190V280 25SM BKN022 BKN240 26/21 A2979 RMK CU5CI2 SLP091 DENSITY ALT 1800FT
10:00
V
24 °C 25 mi 24.000 ft 230° 230° 5 kt METAR CYMX 151400Z 23005KT 190V280 25SM SCT016 BKN240 24/21 A2979 RMK CU4CI2 SLP091 DENSITY ALT 1600FT
09:18
V
23 °C 20 mi 24.000 ft 230° 230° 7 kt METAR CYMX 151318Z 23007KT 180V260 20SM SCT012 BKN240 23/21 A2979 RMK CU4CI3 SLP091 DENSITY ALT 1500FT
09:00
M
23 °C 20 mi 1.100 ft 260° 260° 5 kt METAR CYMX 151300Z 26005KT 170V300 20SM BKN011 BKN240 23/21 A2979 RMK CU5CI2 SLP091 DENSITY ALT 1400FT
08:00
M
22 °C 20 mi 1.000 ft 230° 230° 4 kt METAR CYMX 151200Z 23004KT 190V270 20SM BKN010 BKN240 22/20 A2980 RMK SF6CI1 SLP093 DENSITY ALT 1300FT
07:29
V
22 °C 20 mi 24.000 ft 230° 230° 5 kt METAR CYMX 151129Z 23005KT 190V300 20SM SCT010 BKN240 22/19 A2980 RMK SF3CI2 SLP092 DENSITY ALT 1300FT
07:20
M
22 °C 20 mi 1.100 ft 240° 240° 3 kt METAR CYMX 151120Z 24003KT 200V300 20SM BKN011 BKN240 22/20 A2980 RMK SF5CI1 SLP092 DENSITY ALT 1300FT
07:00
V
21 °C 20 mi 24.000 ft 220° 220° 3 kt METAR CYMX 151100Z 22003KT 190V250 20SM SCT012 BKN240 21/19 A2980 RMK SF4CI1 SLP091 DENSITY ALT 1300FT
06:00
V
20 °C 25 mi - 220° 220° 2 kt METAR CYMX 151000Z 22002KT 25SM FEW150 FEW250 20/19 A2980 RMK AC1CI1 AC TR SLP093 DENSITY ALT 1100FT
05:00
V
20 °C 20 mi - 220° 220° 3 kt METAR CYMX 150900Z 22003KT 180V290 20SM FEW040 FEW080 FEW250 20/18 A2979 RMK SC1AC1CI1 CI TR SLP089 DENSITY ALT 1100FT
04:00
V
21 °C 25 mi 8.000 ft 210° 210° 4 kt METAR CYMX 150800Z 21004KT 25SM BKN080 21/18 A2978 RMK AC5 SLP085 DENSITY ALT 1200FT
03:00
V
20 °C 25 mi 11.000 ft 190° 190° 3 kt METAR CYMX 150700Z 19003KT 25SM FEW068 BKN110 20/18 A2978 RMK AC2AC3 SLP087 DENSITY ALT 1100FT
02:00
V
20 °C 25 mi 12.000 ft 360° 360° 0 kt METAR CYMX 150600Z 00000KT 25SM SCT062 BKN120 20/18 A2979 RMK SC3AC4 SLP090 DENSITY ALT 1100FT
01:00
V
20 °C 25 mi 6.000 ft 360° 360° 0 kt METAR CYMX 150500Z 00000KT 25SM BKN060 BKN130 20/18 A2981 RMK SC5AC1 SLP097 DENSITY ALT 1100FT
00:00
V
19 °C 25 mi - 250° 250° 2 kt METAR CYMX 150400Z 25002KT 25SM FEW060 SCT250 19/18 A2982 RMK SC1CI3 SLP101 DENSITY ALT 1000FT

14 de julio de 2024

Hora Código Tiempo Temp. Visibilidad Cielo nuboso Viento METAR/SPECI
23:00
V
19 °C 25 mi - 360° 360° 0 kt METAR CYMX 150300Z 00000KT 25SM SCT250 19/17 A2983 RMK CI3 SLP104 DENSITY ALT 900FT
22:00
V
22 °C 25 mi - Var Var 2 kt METAR CYMX 150200Z VRB02KT 25SM FEW250 22/18 A2985 RMK CI2 SLP111 DENSITY ALT 1300FT
21:00
V
24 °C 25 mi - 220° 220° 7 kt METAR CYMX 150100Z 22007KT 25SM FEW045 FEW250 24/18 A2985 RMK CU1CI1 CU TR SLP110 DENSITY ALT 1500FT
20:00
V
25 °C 25 mi - 210° 210° 6 kt METAR CYMX 150000Z 21006KT 25SM FEW045 FEW150 FEW250 25/19 A2984 RMK CU1AC1CI1 CU TR SLP108 DENSITY ALT 1700FT
19:00
V
27 °C 20 mi - 210° 210° 7 kt METAR CYMX 142300Z 21007KT 180V240 20SM FEW045 FEW250 27/21 A2985 RMK CU1CI1 CU TR SLP111 DENSITY ALT 1800FT
18:00
V
28 °C 20 mi - 220° 220° 4 kt METAR CYMX 142200Z 22004KT 180V250 20SM FEW045 FEW240 28/20 A2986 RMK CU1CI1 SLP114 DENSITY ALT 1900FT
17:00
V
27 °C 20 mi - 230° 230° 7 kt METAR CYMX 142100Z 23007KT 200V260 20SM FEW045 SCT240 27/19 A2988 RMK CU2CI2 SLP119 DENSITY ALT 1900FT
16:00
V
29 °C 20 mi - 230° 230° 7 kt METAR CYMX 142000Z 23007KT 150V280 20SM FEW045 29/20 A2989 RMK CU2 SLP125 DENSITY ALT 2000FT
15:00
V
28 °C 20 mi - 230° 230° 4 kt METAR CYMX 141900Z 23004KT 190V280 20SM FEW040 28/19 A2991 RMK CU1 SLP129 DENSITY ALT 1900FT
14:00
V
28 °C 20 mi - 230° 230° 7 kt METAR CYMX 141800Z 23007KT 200V280 20SM FEW040 28/17 A2994 RMK CU1 SLP140 DENSITY ALT 1800FT
13:00
V
27 °C 20 mi - 250° 250° 7 kt METAR CYMX 141700Z 25007KT 150V300 20SM FEW032 27/20 A2997 RMK CU1 SLP149 DENSITY ALT 1700FT
12:00
V
26 °C 20 mi - 220° 220° 7 kt METAR CYMX 141600Z 22007KT 200V290 20SM FEW024 26/21 A2998 RMK CU1 SLP155 DENSITY ALT 1600FT
11:00
V
25 °C 20 mi - 230° 230° 4 kt METAR CYMX 141500Z 23004KT 190V280 20SM FEW016 25/22 A2999 RMK CU1 CU TR SLP156 DENSITY ALT 1500FT
10:00
V
23 °C 20 mi - 250° 250° 6 kt METAR CYMX 141400Z 25006KT 200V270 20SM FEW012 23/21 A2999 RMK CF1 CF TR SLP157 DENSITY ALT 1300FT
09:00
V
22 °C 20 mi - 240° 240° 5 kt METAR CYMX 141300Z 24005KT 190V280 20SM FEW008 22/20 A2999 RMK SF2 SLP158 DENSITY ALT 1100FT
08:30
V
21 °C 20 mi - 230° 230° 5 kt SPECI CYMX 141230Z 23005KT 200V290 20SM SCT006 21/20 A2999 RMK SF4 SLP158 DENSITY ALT 1000FT
08:18
I
21 °C 10 mi 500 ft 230° 230° 5 kt SPECI CYMX 141218Z 23005KT 180V280 10SM BKN005 21/20 A3000 RMK SF6 SLP160 DENSITY ALT 900FT
08:00
L
20 °C 3 mi 300 ft 250° 250° 4 kt METAR CYMX 141200Z 25004KT 190V280 3SM BR BKN003 20/19 A3000 RMK FG1SF6 VIS VRB 2 - 4 SLP161 DENSITY ALT 800FT
07:47
L
19 °C 1 mi 200 ft 230° 230° 4 kt SPECI CYMX 141147Z 23004KT 190V310 1SM R24/5000VP6000FT/N BR BKN002 19/19 A3000 RMK FG5SF2 VIS VRB 3/4 - 1 1/4 SLP162 DENSITY ALT 800FT
07:00
L
19 °C ½ mi 200 ft 240° 240° 5 kt METAR CYMX 141100Z 24005KT 1/2SM R24/5000VP6000FT/D FG BKN002 19/19 A3000 RMK FG6SF1 SLP159 DENSITY ALT 700FT
06:34
L
19 °C ½ mi 200 ft 240° 240° 4 kt SPECI CYMX 141034Z 24004KT 140V290 1/2SM R24/P6000FT/N FG BKN002 19/19 A3000 RMK FG6SF1 VIS VRB 1/4 - 3/4 SLP160 DENSITY ALT 700FT
06:12
L
19 °C ¼ mi 200 ft 240° 240° 3 kt SPECI CYMX 141012Z 24003KT 200V270 1/4SM R24/P6000FT/N FG BKN002 19/18 A3000 RMK SF5 SLP160 DENSITY ALT 700FT
05:00
V
19 °C 12 mi - 250° 250° 5 kt METAR CYMX 140900Z 25005KT 200V280 12SM FEW250 19/19 A3001 RMK CI1 CI TR SLP163 DENSITY ALT 800FT
04:00
V
19 °C 25 mi - 250° 250° 3 kt METAR CYMX 140800Z 25003KT 200V320 25SM SKC 19/19 A3000 RMK SLP162 DENSITY ALT 800FT
03:00
V
19 °C 25 mi - 240° 240° 2 kt METAR CYMX 140700Z 24002KT 25SM SKC 19/18 A3001 RMK SLP163 DENSITY ALT 800FT
02:00
V
20 °C 25 mi - 210° 210° 3 kt METAR CYMX 140600Z 21003KT 190V270 25SM SKC 20/18 A3001 RMK SLP165 DENSITY ALT 800FT
Cambiar esta información